createdAt,value
2019-01-16T00:01:34.629Z,7.50
2019-01-16T00:04:15.591Z,7.50
2019-01-16T00:06:55.518Z,7.50
2019-01-16T00:09:47.908Z,7.50
2019-01-16T00:12:37.128Z,7.50
2019-01-16T00:15:26.978Z,7.50
2019-01-16T00:18:17.099Z,7.50
2019-01-16T00:21:02.805Z,7.50
2019-01-16T00:24:03.892Z,7.50
2019-01-16T00:26:55.660Z,7.50
2019-01-16T00:29:57.210Z,7.50
2019-01-16T00:32:38.539Z,7.50
2019-01-16T00:35:33.458Z,7.50
2019-01-16T00:38:30.679Z,7.50
2019-01-16T00:41:28.818Z,7.50
2019-01-16T00:44:18.010Z,7.50
2019-01-16T00:47:19.494Z,7.50
2019-01-16T00:50:01.226Z,7.60
2019-01-16T00:52:53.215Z,7.60
2019-01-16T00:55:42.439Z,7.60
2019-01-16T00:58:30.355Z,7.50
2019-01-16T01:01:16.924Z,7.50
2019-01-16T01:04:07.306Z,7.60
2019-01-16T01:06:55.381Z,7.60
2019-01-16T01:09:54.029Z,7.60
2019-01-16T01:12:58.845Z,7.60
2019-01-16T01:15:46.757Z,7.60
2019-01-16T01:18:32.272Z,7.50
2019-01-16T01:21:17.000Z,7.60
2019-01-16T01:24:00.848Z,7.60
2019-01-16T01:26:56.066Z,7.60
2019-01-16T01:29:57.348Z,7.50
2019-01-16T01:32:38.368Z,7.60
2019-01-16T01:35:30.358Z,7.60
2019-01-16T01:38:18.215Z,7.60
2019-01-16T01:41:06.640Z,7.60
2019-01-16T01:43:56.237Z,7.60
2019-01-16T01:46:48.535Z,7.50
2019-01-16T01:49:36.723Z,7.60
2019-01-16T01:52:14.302Z,7.60
2019-01-16T01:54:59.788Z,7.60
2019-01-16T01:57:47.859Z,7.60
2019-01-16T02:00:35.630Z,7.60
2019-01-16T02:03:24.942Z,7.60
2019-01-16T02:06:11.569Z,7.60
2019-01-16T02:09:08.000Z,7.60
2019-01-16T02:11:57.291Z,7.60
2019-01-16T02:14:40.710Z,7.60
2019-01-16T02:17:36.581Z,7.60
2019-01-16T02:20:27.194Z,7.60
2019-01-16T02:23:15.269Z,7.60
2019-01-16T02:26:04.730Z,7.60
2019-01-16T02:29:00.044Z,7.60
2019-01-16T02:31:48.251Z,7.50
2019-01-16T02:34:49.956Z,7.60
2019-01-16T02:37:54.587Z,7.60
2019-01-16T02:40:37.455Z,7.60
2019-01-16T02:43:25.743Z,7.60
2019-01-16T02:46:07.078Z,7.50
2019-01-16T02:48:56.016Z,7.50
2019-01-16T02:51:51.981Z,7.60
2019-01-16T02:54:59.708Z,7.60
2019-01-16T02:57:36.434Z,7.60
2019-01-16T03:00:30.037Z,7.60
2019-01-16T03:03:14.572Z,7.50
2019-01-16T03:06:13.109Z,7.60
2019-01-16T03:09:10.295Z,7.60
2019-01-16T03:11:59.857Z,7.60
2019-01-16T03:14:39.827Z,7.60
2019-01-16T03:17:41.326Z,7.50
2019-01-16T03:20:36.035Z,7.50
2019-01-16T03:23:24.383Z,7.60
2019-01-16T03:26:06.129Z,7.60
2019-01-16T03:29:02.369Z,7.60
2019-01-16T03:31:58.067Z,7.60
2019-01-16T03:35:05.643Z,7.60
2019-01-16T03:37:41.876Z,7.50
2019-01-16T03:40:34.030Z,7.50
2019-01-16T03:43:26.318Z,7.50
2019-01-16T03:46:18.477Z,7.60
2019-01-16T03:49:02.250Z,7.50
2019-01-16T03:51:54.489Z,7.50
2019-01-16T03:54:44.564Z,7.50
2019-01-16T03:57:32.696Z,7.50
2019-01-16T04:00:31.182Z,7.50
2019-01-16T04:03:30.284Z,7.40
2019-01-16T04:06:22.224Z,7.40
2019-01-16T04:09:07.340Z,7.40
2019-01-16T04:12:14.818Z,7.40
2019-01-16T04:15:00.562Z,7.40
2019-01-16T04:17:45.071Z,7.40
2019-01-16T04:20:28.063Z,7.40
2019-01-16T04:23:17.413Z,7.40
2019-01-16T04:26:05.452Z,7.40
2019-01-16T04:29:03.850Z,7.30
2019-01-16T04:31:44.095Z,7.30
2019-01-16T04:34:22.758Z,7.30
2019-01-16T04:37:11.992Z,7.30
2019-01-16T04:40:00.240Z,7.30
2019-01-16T04:42:41.461Z,7.30
2019-01-16T04:45:21.160Z,7.30
2019-01-16T04:48:10.358Z,7.30
2019-01-16T04:50:59.647Z,7.30
2019-01-16T04:53:47.882Z,7.30
2019-01-16T04:56:35.983Z,7.30
2019-01-16T04:59:24.283Z,7.30
2019-01-16T05:02:08.292Z,7.30
2019-01-16T05:05:15.915Z,7.30
2019-01-16T05:08:00.702Z,7.30
2019-01-16T05:10:48.799Z,7.30
2019-01-16T05:13:40.981Z,7.20
2019-01-16T05:16:19.437Z,7.30
2019-01-16T05:19:07.497Z,7.20
2019-01-16T05:21:51.858Z,7.20
2019-01-16T05:24:39.963Z,7.20
2019-01-16T05:27:39.315Z,7.20
2019-01-16T05:30:42.844Z,7.30
2019-01-16T05:33:26.437Z,7.30
2019-01-16T05:36:13.560Z,7.30
2019-01-16T05:39:01.652Z,7.30
2019-01-16T05:42:09.245Z,7.30
2019-01-16T05:44:57.214Z,7.30
2019-01-16T05:47:45.093Z,7.20
2019-01-16T05:50:43.042Z,7.30
2019-01-16T05:53:23.716Z,7.30
2019-01-16T05:56:11.532Z,7.30
2019-01-16T05:59:15.878Z,7.30
2019-01-16T06:02:17.005Z,7.30
2019-01-16T06:04:55.787Z,7.30
2019-01-16T06:07:36.814Z,7.30
2019-01-16T06:10:27.016Z,7.30
2019-01-16T06:13:31.662Z,7.30
2019-01-16T06:16:20.851Z,7.20
2019-01-16T06:19:08.856Z,7.30
2019-01-16T06:21:50.476Z,7.30
2019-01-16T06:24:32.538Z,7.30
2019-01-16T06:27:30.256Z,7.30
2019-01-16T06:30:31.853Z,7.30
2019-01-16T06:33:19.988Z,7.20
2019-01-16T06:36:03.734Z,7.20
2019-01-16T06:38:55.686Z,7.30
2019-01-16T06:41:43.956Z,7.30
2019-01-16T06:44:42.014Z,7.30
2019-01-16T06:47:26.419Z,7.20
2019-01-16T06:50:18.763Z,7.20
2019-01-16T06:52:55.528Z,7.20
2019-01-16T06:55:44.790Z,7.20
2019-01-16T06:58:34.113Z,7.20
2019-01-16T07:01:21.727Z,7.20
2019-01-16T07:04:09.823Z,7.30
2019-01-16T07:07:05.069Z,7.20
2019-01-16T07:10:01.729Z,7.20
2019-01-16T07:12:57.136Z,7.20
2019-01-16T07:15:45.457Z,7.30
2019-01-16T07:18:40.836Z,7.30
2019-01-16T07:21:28.924Z,7.30
2019-01-16T07:24:17.000Z,7.20
2019-01-16T07:27:05.228Z,7.20
2019-01-16T07:29:57.205Z,7.20
2019-01-16T07:32:48.906Z,7.30
2019-01-16T07:35:36.769Z,7.30
2019-01-16T07:38:16.666Z,7.30
2019-01-16T07:41:20.926Z,7.30
2019-01-16T07:44:09.006Z,7.30
2019-01-16T07:46:57.044Z,7.30
2019-01-16T07:49:44.925Z,7.30
2019-01-16T07:52:36.601Z,7.30
2019-01-16T07:55:24.624Z,7.30
2019-01-16T07:58:19.996Z,7.30
2019-01-16T08:01:27.428Z,7.30
2019-01-16T08:04:16.750Z,7.30
2019-01-16T08:07:02.924Z,7.30
2019-01-16T08:09:52.250Z,7.30
2019-01-16T08:12:40.025Z,7.30
2019-01-16T08:15:31.361Z,7.30
2019-01-16T08:18:20.577Z,7.30
2019-01-16T08:21:15.746Z,7.30
2019-01-16T08:24:11.110Z,7.30
2019-01-16T08:26:52.387Z,7.30
2019-01-16T08:29:53.729Z,7.30
2019-01-16T08:32:42.146Z,7.40
2019-01-16T08:35:28.140Z,7.40
2019-01-16T08:38:18.919Z,7.40
2019-01-16T08:41:11.274Z,7.40
2019-01-16T08:43:59.819Z,7.40
2019-01-16T08:46:50.476Z,7.40
2019-01-16T08:49:38.689Z,7.40
2019-01-16T08:52:30.958Z,7.40
2019-01-16T08:55:18.848Z,7.50
2019-01-16T08:58:08.083Z,7.40
2019-01-16T09:00:48.418Z,7.50
2019-01-16T09:03:39.558Z,7.50
2019-01-16T09:06:25.404Z,7.50
2019-01-16T09:09:17.423Z,7.50
2019-01-16T09:12:06.625Z,7.50
2019-01-16T09:14:56.889Z,7.60
2019-01-16T09:17:53.211Z,7.60
2019-01-16T09:20:42.415Z,7.60
2019-01-16T09:23:33.462Z,7.60
2019-01-16T09:26:34.670Z,7.60
2019-01-16T09:29:23.261Z,7.60
2019-01-16T09:32:19.070Z,7.60
2019-01-16T09:35:07.170Z,7.70
2019-01-16T09:37:56.438Z,7.70
2019-01-16T09:40:34.671Z,7.70
2019-01-16T09:43:19.201Z,7.80
2019-01-16T09:46:23.867Z,7.80
2019-01-16T09:49:25.059Z,7.70
2019-01-16T09:52:13.084Z,7.80
2019-01-16T09:55:01.781Z,7.90
2019-01-16T09:57:57.346Z,7.90
2019-01-16T10:00:45.213Z,7.90
2019-01-16T10:03:39.191Z,7.90
2019-01-16T10:06:34.494Z,7.80
2019-01-16T10:09:35.735Z,7.80
2019-01-16T10:12:23.836Z,7.80
2019-01-16T10:15:16.255Z,7.90
2019-01-16T10:18:20.807Z,7.90
2019-01-16T10:21:12.158Z,7.90
2019-01-16T10:24:13.984Z,7.80
2019-01-16T10:27:03.591Z,7.80
2019-01-16T10:29:48.517Z,7.80
2019-01-16T10:32:46.849Z,7.80
2019-01-16T10:35:54.808Z,7.80
2019-01-16T10:38:42.726Z,7.80
2019-01-16T10:41:41.319Z,7.70
2019-01-16T10:44:32.871Z,7.70
2019-01-16T10:47:40.574Z,7.70
2019-01-16T10:50:44.583Z,7.70
2019-01-16T10:53:37.363Z,7.70
2019-01-16T10:56:26.632Z,7.80
2019-01-16T10:59:15.865Z,7.70
2019-01-16T11:02:03.135Z,7.70
2019-01-16T11:04:52.283Z,7.70
2019-01-16T11:07:50.858Z,7.70
2019-01-16T11:10:46.267Z,7.70
2019-01-16T11:13:34.824Z,7.60
2019-01-16T11:16:30.327Z,7.60
2019-01-16T11:19:19.616Z,7.70
2019-01-16T11:22:07.714Z,7.70
2019-01-16T11:24:56.069Z,7.70
2019-01-16T11:27:47.986Z,7.60
2019-01-16T11:30:35.818Z,7.60
2019-01-16T11:33:37.300Z,7.60
2019-01-16T11:36:22.277Z,7.60
2019-01-16T11:39:17.620Z,7.60
2019-01-16T11:42:06.283Z,7.60
2019-01-16T11:45:11.071Z,7.60
2019-01-16T11:47:59.251Z,7.60
2019-01-16T11:50:57.850Z,7.60
2019-01-16T11:53:40.841Z,7.60
2019-01-16T11:56:28.993Z,7.60
2019-01-16T11:59:30.869Z,7.60
2019-01-16T12:02:22.877Z,7.60
2019-01-16T12:05:06.374Z,7.70
2019-01-16T12:07:54.448Z,7.60
2019-01-16T12:10:49.926Z,7.70
2019-01-16T12:13:37.975Z,7.60
2019-01-16T12:16:30.418Z,7.60
2019-01-16T12:19:19.643Z,7.60
2019-01-16T12:22:17.938Z,7.60
2019-01-16T12:24:56.877Z,7.60
2019-01-16T12:27:44.884Z,7.60
2019-01-16T12:30:32.495Z,7.60
2019-01-16T12:33:16.225Z,7.50
2019-01-16T12:36:10.767Z,7.50
2019-01-16T12:39:02.893Z,7.50
2019-01-16T12:42:04.315Z,7.50
2019-01-16T12:44:59.858Z,7.50
2019-01-16T12:47:45.390Z,7.50
2019-01-16T12:50:50.514Z,7.50
2019-01-16T12:53:33.741Z,7.50
2019-01-16T12:56:21.214Z,7.50
2019-01-16T12:59:19.879Z,7.50
2019-01-16T13:02:00.020Z,7.40
2019-01-16T13:04:45.514Z,7.40
2019-01-16T13:07:33.506Z,7.50
2019-01-16T13:10:20.093Z,7.40
2019-01-16T13:13:12.422Z,7.40
2019-01-16T13:16:03.093Z,7.40
2019-01-16T13:19:01.402Z,7.40
2019-01-16T13:21:59.637Z,7.30
2019-01-16T13:24:47.566Z,7.30
2019-01-16T13:27:39.800Z,7.30
2019-01-16T13:30:32.037Z,7.30
2019-01-16T13:33:20.041Z,7.30
2019-01-16T13:36:08.156Z,7.30
2019-01-16T13:38:57.879Z,7.30
2019-01-16T13:41:44.191Z,7.30
2019-01-16T13:44:33.405Z,7.30
2019-01-16T13:47:21.407Z,7.20
2019-01-16T13:50:29.238Z,7.20
2019-01-16T13:53:18.513Z,7.20
2019-01-16T13:56:00.901Z,7.10
2019-01-16T13:58:50.145Z,7.10
2019-01-16T14:01:39.824Z,7.10
2019-01-16T14:04:29.084Z,7.10
2019-01-16T14:07:06.636Z,7.10
2019-01-16T14:10:01.953Z,7.10
2019-01-16T14:13:03.730Z,7.00
2019-01-16T14:15:58.772Z,7.00
2019-01-16T14:18:54.175Z,7.00
2019-01-16T14:21:42.216Z,7.00
2019-01-16T14:24:30.226Z,7.00
2019-01-16T14:27:26.224Z,7.00
2019-01-16T14:30:14.291Z,7.00
2019-01-16T14:33:18.853Z,7.00
2019-01-16T14:36:26.626Z,7.00
2019-01-16T14:39:16.879Z,7.00
2019-01-16T14:41:56.928Z,6.90
2019-01-16T14:45:01.549Z,6.80
2019-01-16T14:48:02.824Z,6.80
2019-01-16T14:50:50.423Z,6.90
2019-01-16T14:53:40.655Z,6.80
2019-01-16T14:56:28.572Z,6.80
2019-01-16T14:59:17.714Z,6.80
2019-01-16T15:02:19.158Z,6.80
2019-01-16T15:05:14.430Z,6.70
2019-01-16T15:08:01.087Z,6.70
2019-01-16T15:10:41.835Z,6.70
2019-01-16T15:13:23.245Z,6.70
2019-01-16T15:16:01.868Z,6.70
2019-01-16T15:18:49.062Z,6.70
2019-01-16T15:21:41.429Z,6.70
2019-01-16T15:24:29.807Z,6.60
2019-01-16T15:27:22.148Z,6.60
2019-01-16T15:30:01.182Z,6.60
2019-01-16T15:33:08.854Z,6.60
2019-01-16T15:35:50.930Z,6.60
2019-01-16T15:38:52.075Z,6.60
2019-01-16T15:41:43.076Z,6.60
2019-01-16T15:44:38.323Z,6.50
2019-01-16T15:47:26.743Z,6.50
2019-01-16T15:50:14.820Z,6.50
2019-01-16T15:53:02.740Z,6.50
2019-01-16T15:55:57.320Z,6.50
2019-01-16T15:59:07.636Z,6.50
2019-01-16T16:02:14.735Z,6.50
2019-01-16T16:05:12.980Z,6.40
2019-01-16T16:07:51.943Z,6.40
2019-01-16T16:10:59.708Z,6.40
2019-01-16T16:13:47.323Z,6.40
2019-01-16T16:16:51.985Z,6.40
2019-01-16T16:19:50.360Z,6.40
2019-01-16T16:22:31.912Z,6.40
2019-01-16T16:25:21.371Z,6.40
2019-01-16T16:28:12.418Z,6.40
2019-01-16T16:31:00.230Z,6.40
2019-01-16T16:33:48.202Z,6.40
2019-01-16T16:36:36.072Z,6.40
2019-01-16T16:39:27.556Z,6.40
2019-01-16T16:42:28.814Z,6.40
2019-01-16T16:45:15.059Z,6.30
2019-01-16T16:48:05.039Z,6.30
2019-01-16T16:50:44.847Z,6.30
2019-01-16T16:53:34.485Z,6.30
2019-01-16T16:56:36.072Z,6.30
2019-01-16T16:59:32.537Z,6.30
2019-01-16T17:02:15.081Z,6.20
2019-01-16T17:05:10.223Z,6.20
2019-01-16T17:08:11.751Z,6.20
2019-01-16T17:11:00.512Z,6.20
2019-01-16T17:13:47.531Z,6.20
2019-01-16T17:16:35.268Z,6.20
2019-01-16T17:19:30.421Z,6.20
2019-01-16T17:22:17.456Z,6.30
2019-01-16T17:24:57.796Z,6.20
2019-01-16T17:27:53.072Z,6.30
2019-01-16T17:30:45.392Z,6.30
2019-01-16T17:33:27.585Z,6.30
2019-01-16T17:36:16.015Z,6.30
2019-01-16T17:39:11.698Z,6.30
2019-01-16T17:41:59.793Z,6.30
2019-01-16T17:44:52.045Z,6.20
2019-01-16T17:47:40.383Z,6.30
2019-01-16T17:50:33.592Z,6.20
2019-01-16T17:53:15.636Z,6.20
2019-01-16T17:56:20.172Z,6.20
2019-01-16T17:59:24.385Z,6.20
2019-01-16T18:02:03.790Z,6.20
2019-01-16T18:04:47.679Z,6.20
2019-01-16T18:07:30.171Z,6.20
2019-01-16T18:10:25.372Z,6.20
2019-01-16T18:13:22.259Z,6.20
2019-01-16T18:16:17.605Z,6.20
2019-01-16T18:19:00.664Z,6.20
2019-01-16T18:21:50.382Z,6.20
2019-01-16T18:24:31.941Z,6.10
2019-01-16T18:27:21.181Z,6.10
2019-01-16T18:30:10.842Z,6.10
2019-01-16T18:33:15.278Z,6.20
2019-01-16T18:36:16.658Z,6.10
2019-01-16T18:39:18.083Z,6.10
2019-01-16T18:42:07.358Z,6.10
2019-01-16T18:44:46.244Z,6.00
2019-01-16T18:47:24.617Z,6.10
2019-01-16T18:50:20.466Z,6.00
2019-01-16T18:53:05.655Z,6.00
2019-01-16T18:55:54.192Z,6.00
2019-01-16T18:58:42.042Z,6.00
2019-01-16T19:01:21.046Z,6.00
2019-01-16T19:04:09.374Z,5.90
2019-01-16T19:07:00.408Z,5.90
2019-01-16T19:09:46.072Z,5.90
2019-01-16T19:12:29.722Z,5.90
2019-01-16T19:15:19.352Z,5.90
2019-01-16T19:18:17.491Z,5.90
2019-01-16T19:21:15.846Z,5.90
2019-01-16T19:24:08.967Z,5.90
2019-01-16T19:26:58.133Z,5.80
2019-01-16T19:29:46.016Z,5.80
2019-01-16T19:32:41.027Z,5.90
2019-01-16T19:35:29.579Z,5.80
2019-01-16T19:38:24.863Z,5.80
2019-01-16T19:41:27.519Z,5.80
2019-01-16T19:44:15.718Z,5.80
2019-01-16T19:47:13.098Z,5.80
2019-01-16T19:50:05.056Z,5.70
2019-01-16T19:52:54.253Z,5.70
2019-01-16T19:55:42.265Z,5.70
2019-01-16T19:58:29.111Z,5.70
2019-01-16T20:01:27.374Z,5.70
2019-01-16T20:04:15.432Z,5.70
2019-01-16T20:06:58.607Z,5.70
2019-01-16T20:10:02.865Z,5.60
2019-01-16T20:12:51.685Z,5.60
2019-01-16T20:15:44.037Z,5.70
2019-01-16T20:18:32.368Z,5.70
2019-01-16T20:21:20.173Z,5.60
2019-01-16T20:24:08.261Z,5.70
2019-01-16T20:27:06.608Z,5.70
2019-01-16T20:30:01.757Z,5.70
2019-01-16T20:33:03.337Z,5.70
2019-01-16T20:35:50.936Z,5.60
2019-01-16T20:38:58.232Z,5.60
2019-01-16T20:41:47.489Z,5.60
2019-01-16T20:44:39.618Z,5.60
2019-01-16T20:47:18.305Z,5.60
2019-01-16T20:50:04.636Z,5.60
2019-01-16T20:53:06.460Z,5.60
2019-01-16T20:55:55.689Z,5.60
2019-01-16T20:58:43.548Z,5.60
2019-01-16T21:01:31.004Z,5.60
2019-01-16T21:04:32.542Z,5.60
2019-01-16T21:07:27.696Z,5.50
2019-01-16T21:10:14.648Z,5.50
2019-01-16T21:13:06.678Z,5.60
2019-01-16T21:16:04.360Z,5.50
2019-01-16T21:18:50.409Z,5.60
2019-01-16T21:21:38.498Z,5.60
2019-01-16T21:24:33.845Z,5.60
2019-01-16T21:27:35.331Z,5.60
2019-01-16T21:30:32.404Z,5.50
2019-01-16T21:33:26.335Z,5.50
2019-01-16T21:36:14.395Z,5.50
2019-01-16T21:39:12.662Z,5.60
2019-01-16T21:42:06.094Z,5.50
2019-01-16T21:44:53.928Z,5.50
2019-01-16T21:47:39.004Z,5.50
2019-01-16T21:50:31.820Z,5.60
2019-01-16T21:53:30.339Z,5.50
2019-01-16T21:56:13.371Z,5.50
2019-01-16T21:59:07.202Z,5.50
2019-01-16T22:01:59.546Z,5.50
2019-01-16T22:04:57.727Z,5.50
2019-01-16T22:07:41.565Z,5.50
2019-01-16T22:10:31.055Z,5.50
2019-01-16T22:13:21.933Z,5.50
2019-01-16T22:16:26.225Z,5.50
2019-01-16T22:19:03.508Z,5.50
2019-01-16T22:22:05.983Z,5.50
2019-01-16T22:24:57.969Z,5.50
2019-01-16T22:27:53.051Z,5.50
2019-01-16T22:30:41.092Z,5.50
2019-01-16T22:33:23.495Z,5.50
2019-01-16T22:36:30.782Z,5.50
2019-01-16T22:39:22.801Z,5.40
2019-01-16T22:42:30.078Z,5.50
2019-01-16T22:45:19.144Z,5.50
2019-01-16T22:48:12.366Z,5.50
2019-01-16T22:51:10.876Z,5.50
2019-01-16T22:54:09.275Z,5.50
2019-01-16T22:57:10.605Z,5.50
2019-01-16T22:59:59.777Z,5.50
2019-01-16T23:02:38.404Z,5.50
2019-01-16T23:05:18.983Z,5.40
2019-01-16T23:08:10.950Z,5.40
2019-01-16T23:10:54.601Z,5.40
2019-01-16T23:13:46.606Z,5.50
2019-01-16T23:16:36.054Z,5.50
2019-01-16T23:19:33.507Z,5.50
2019-01-16T23:22:30.155Z,5.50
2019-01-16T23:25:14.277Z,5.50
2019-01-16T23:28:01.440Z,5.40
2019-01-16T23:30:39.900Z,5.50
2019-01-16T23:33:41.208Z,5.50
2019-01-16T23:36:33.579Z,5.40
2019-01-16T23:39:25.481Z,5.40
2019-01-16T23:42:13.641Z,5.50
2019-01-16T23:44:58.420Z,5.50
2019-01-16T23:47:39.870Z,5.50
2019-01-16T23:50:34.650Z,5.50
2019-01-16T23:53:16.962Z,5.50
2019-01-16T23:56:08.933Z,5.50
2019-01-16T23:58:58.047Z,5.40
